Katmai National Park, AK

1:49 PM AKDT on March 27, 2015 (GMT -0800)
King Salmon | | Change Station
CLOSE
Current Station
Airport
Location: King Salmon,
Elevation: 46 ft
Nearby Weather Stations

Elev 46 ft 58.68 °N, 156.66 °W | Updated 55 minutes ago

Mostly Cloudy
Mostly Cloudy
43 °F
Feels Like 36 °F
N
13
Wind Variable Wind from SE

Today
High -- | Low -- °F
--% Chance of Precip.
Yesterday
High -- | Low -- °F
Precip. -- in
8:08 AM 8:57 PM
First Quarter, 56% visible
Pressure 29.35 in
Visibility 10.0 miles
Clouds Few 5500 ft
Mostly Cloudy 9000 ft
Mostly Cloudy 15000 ft
Windchill 36 °F
Dew Point 31 °F
Humidity 62%
Rainfall 0.00 in
Snow Depth Not available.
UV 2 out of 12
Pollen Not available.
Air Quality Not available.
Flu Activity Not available.
METAR PAKN 272054Z 14011KT 10SM FEW055 BKN090 BKN150 06/M01 A2934 RMK AO2 SLP937 T00611006 51019

More Conditions Fewer Conditions

Pressure 29.35 in
Visibility 10.0 miles
Clouds Few 5500 ft
Mostly Cloudy 9000 ft
Mostly Cloudy 15000 ft
Windchill 36 °F
Dew Point 31 °F
Humidity 62%
Rainfall 0.00 in
Snow Depth Not available.
UV 2 out of 12
Pollen Not available.
Air Quality Not available.
Flu Activity Not available.
METAR PAKN 272054Z 14011KT 10SM FEW055 BKN090 BKN150 06/M01 A2934 RMK AO2 SLP937 T00611006 51019

More Conditions Fewer Conditions

10-Day Weather Forecast

Almanac

Astronomy

Mar. 27, 2015 Rise Set
Actual Time
Civil Twilight
Nautical Twilight
Astronomical Twilight
Moon
Length of Visible Light
Length of Day
Tomorrow will be .
, % of the Moon is Illuminated

Today's Extremes

State Highs State Lows

Community

WunderPhotos

Upload Photos

1,808,834 photos uploaded!

WunderBlogs® & News

Nearby

Air Quality

  Air Quality AQ Index Pollutant
Not available.

Snow Depth

Station Depth Elevation

Earthquake Activity

City Distance Mag. Time & Date
Minimum magnitude displayed is 2.5.

Coastal Water Temperatures

Place Temperature

Stations

Nearby Weather Stations

Station Location Temp. Windchill Dew Point Humidity Wind Precip. Elev Updated Type